Time;durP1;ratioP1;P1;durP2;ratioP2;P2;SDS_P1;SDS_P2;PMS_P1;PMS_P2;Temp;Humidity;BMP_temperature;BMP_pressure;BME280_temperature;BME280_humidity;BME280_pressure;Samples;Min_cycle;Max_cycle;Signal;HPM_P1;HPM_P2
2022/11/08 00:01:54;;;;;;;1.40;1.30;;;11.00;97.30;;;;;;4979213;28;20456;-87
2022/11/08 00:04:20;;;;;;;8.73;2.10;;;11.00;97.30;;;;;;4974181;28;20845;-87
2022/11/08 00:15:00;;;;;;;1.93;1.20;;;10.90;97.30;;;;;;4976141;28;20476;-87
2022/11/08 00:17:28;;;;;;;5.53;4.03;;;10.90;97.30;;;;;;4974224;28;20442;-87
2022/11/08 00:19:54;;;;;;;1.37;1.30;;;10.80;97.30;;;;;;4974266;28;20418;-87
2022/11/08 00:22:20;;;;;;;1.40;1.30;;;10.80;97.30;;;;;;4974198;28;20912;-87
2022/11/08 00:24:46;;;;;;;2.07;1.87;;;10.80;97.30;;;;;;4974923;28;20182;-87
2022/11/08 00:27:20;;;;;;;2.70;2.50;;;10.80;97.30;;;;;;4974469;28;20899;-87
2022/11/08 00:29:46;;;;;;;3.50;1.60;;;10.80;97.30;;;;;;4975337;28;20202;-87
2022/11/08 00:32:18;;;;;;;3.00;2.10;;;10.70;97.30;;;;;;4975764;28;20418;-87
2022/11/08 00:34:44;;;;;;;2.80;2.07;;;10.70;97.30;;;;;;4976184;28;20179;-87
2022/11/08 00:37:09;;;;;;;3.53;2.60;;;10.70;97.30;;;;;;4977087;28;20492;-88
2022/11/08 00:39:35;;;;;;;1.47;1.37;;;10.70;97.30;;;;;;4978170;28;20422;-88
2022/11/08 00:42:01;;;;;;;4.23;1.90;;;10.60;97.30;;;;;;4986105;28;20178;-87
2022/11/08 00:44:26;;;;;;;3.13;2.07;;;10.60;97.30;;;;;;4995245;28;20761;-88
2022/11/08 00:46:52;;;;;;;1.30;1.20;;;10.60;97.30;;;;;;4994907;28;20227;-89
2022/11/08 00:49:18;;;;;;;1.20;1.10;;;10.60;97.30;;;;;;4994976;28;20203;-89
2022/11/08 00:51:44;;;;;;;1.63;1.47;;;10.60;97.30;;;;;;4992817;28;20214;-87
2022/11/08 00:54:13;;;;;;;1.83;1.70;;;10.60;97.30;;;;;;4975726;28;20454;-86
2022/11/08 00:56:39;;;;;;;2.03;1.60;;;10.60;97.30;;;;;;4973566;28;20199;-87
2022/11/08 00:59:04;;;;;;;4.73;3.07;;;10.70;97.30;;;;;;4974091;28;20928;-87
2022/11/08 01:01:30;;;;;;;1.10;1.10;;;10.70;97.30;;;;;;4973740;28;20186;-87
2022/11/08 01:03:56;;;;;;;4.87;2.90;;;10.70;97.30;;;;;;4973303;28;20182;-86
2022/11/08 01:06:23;;;;;;;1.93;1.83;;;10.70;97.30;;;;;;4973428;28;20640;-87
2022/11/08 01:08:49;;;;;;;1.97;1.87;;;10.70;97.30;;;;;;4973766;28;20189;-87
2022/11/08 01:11:22;;;;;;;1.40;1.30;;;10.70;97.30;;;;;;4973790;28;20425;-87
2022/11/08 01:13:49;;;;;;;1.20;1.10;;;10.60;97.30;;;;;;4975380;28;20971;-87
2022/11/08 01:16:17;;;;;;;2.00;1.77;;;10.60;97.30;;;;;;4964832;28;20466;-88
2022/11/08 01:18:43;;;;;;;2.23;2.03;;;10.60;97.30;;;;;;4955702;28;20407;-87
2022/11/08 01:21:10;;;;;;;1.33;1.23;;;10.50;97.30;;;;;;4954886;28;20423;-88
2022/11/08 01:23:35;;;;;;;2.40;2.20;;;10.50;97.30;;;;;;4953597;28;20438;-88
2022/11/08 01:26:07;;;;;;;1.60;1.50;;;10.50;97.30;;;;;;4954873;28;20427;-87
2022/11/08 01:28:33;;;;;;;1.00;0.90;;;10.50;97.30;;;;;;4954599;28;20223;-88
2022/11/08 01:31:08;;;;;;;1.90;1.40;;;10.40;97.30;;;;;;4954643;29;20471;-88
2022/11/08 01:33:35;;;;;;;0.90;0.80;;;10.40;97.30;;;;;;4955981;28;20417;-88
2022/11/08 01:36:00;;;;;;;3.10;2.03;;;10.40;97.30;;;;;;4954599;28;20936;-87
2022/11/08 01:38:26;;;;;;;3.70;1.57;;;10.30;97.30;;;;;;4954502;28;20422;-87
2022/11/08 01:40:52;;;;;;;1.53;1.43;;;10.30;97.30;;;;;;4955652;28;20215;-87
2022/11/08 01:43:39;;;;;;;2.77;2.37;;;10.30;97.30;;;;;;4954298;29;20429;-88
2022/11/08 01:46:17;;;;;;;3.33;1.63;;;10.30;97.30;;;;;;4954608;29;20290;-87
2022/11/08 01:48:48;;;;;;;1.13;1.03;;;10.30;97.30;;;;;;4954563;29;20466;-87
2022/11/08 01:51:19;;;;;;;1.73;1.70;;;10.20;97.30;;;;;;4954453;29;20470;-87
2022/11/08 01:53:45;;;;;;;1.37;1.27;;;10.20;97.30;;;;;;4954057;28;20473;-88
2022/11/08 01:56:13;;;;;;;3.23;1.30;;;10.20;97.30;;;;;;4955625;28;20503;-88
2022/11/08 01:58:41;;;;;;;1.17;1.07;;;10.20;97.30;;;;;;4954891;28;20515;-88
2022/11/08 02:01:07;;;;;;;5.80;2.63;;;10.20;97.30;;;;;;4953923;28;20423;-90
2022/11/08 02:03:33;;;;;;;1.13;1.00;;;10.10;97.30;;;;;;4953972;28;20569;-87
2022/11/08 02:06:01;;;;;;;1.10;1.00;;;10.10;97.30;;;;;;4955179;28;20187;-87
2022/11/08 02:08:41;;;;;;;1.00;0.90;;;10.10;97.30;;;;;;4954172;28;20423;-86
2022/11/08 02:11:10;;;;;;;1.47;1.40;;;10.10;97.30;;;;;;4954247;28;20598;-88
2022/11/08 02:13:37;;;;;;;1.07;1.03;;;10.10;97.30;;;;;;4954229;29;20792;-87
2022/11/08 02:16:09;;;;;;;1.77;1.73;;;10.10;97.30;;;;;;4978370;28;20529;-89
2022/11/08 02:18:35;;;;;;;2.13;1.80;;;10.10;97.30;;;;;;4995995;28;20442;-89
2022/11/08 02:21:33;;;;;;;2.10;1.63;;;10.10;97.30;;;;;;4996982;28;20414;-90
2022/11/08 02:24:01;;;;;;;2.07;1.93;;;10.10;97.30;;;;;;4974317;28;20426;-87
2022/11/08 02:26:31;;;;;;;1.03;0.93;;;10.00;97.30;;;;;;4957234;28;21035;-87
2022/11/08 02:28:56;;;;;;;1.73;1.27;;;10.00;97.30;;;;;;4952859;29;20425;-87
2022/11/08 02:31:22;;;;;;;1.73;1.67;;;10.00;97.30;;;;;;4952415;29;20423;-87
2022/11/08 02:33:48;;;;;;;2.60;1.73;;;10.00;97.30;;;;;;4952967;29;20172;-87
2022/11/08 02:36:21;;;;;;;8.33;3.43;;;10.00;97.30;;;;;;4954193;29;20309;-87
2022/11/08 02:38:54;;;;;;;1.03;0.93;;;10.00;97.30;;;;;;4954546;28;20454;-87
2022/11/08 02:41:20;;;;;;;1.10;1.00;;;10.00;97.30;;;;;;4953634;29;20524;-87
2022/11/08 02:43:45;;;;;;;1.60;1.50;;;9.90;97.30;;;;;;4953252;29;20422;-87
2022/11/08 02:46:11;;;;;;;2.00;1.53;;;9.90;97.30;;;;;;4953391;29;20760;-88
2022/11/08 02:48:36;;;;;;;1.10;1.00;;;9.80;97.30;;;;;;4954052;29;20668;-88
2022/11/08 02:51:02;;;;;;;1.63;1.17;;;9.80;97.30;;;;;;4952456;29;20294;-88
2022/11/08 02:53:28;;;;;;;1.40;1.17;;;9.80;97.30;;;;;;4953090;29;20267;-88
2022/11/08 02:55:54;;;;;;;1.10;1.00;;;9.80;97.30;;;;;;4952304;29;20415;-88
2022/11/08 02:58:19;;;;;;;1.10;1.00;;;9.80;97.30;;;;;;4953698;29;20174;-88
2022/11/08 03:00:45;;;;;;;1.33;1.10;;;9.80;97.30;;;;;;4952510;29;20187;-87
2022/11/08 03:03:11;;;;;;;0.93;0.83;;;9.80;97.30;;;;;;4952852;29;20206;-88
2022/11/08 03:05:36;;;;;;;1.47;1.30;;;9.80;97.30;;;;;;4952582;29;20179;-87
2022/11/08 03:08:02;;;;;;;1.00;0.90;;;9.80;97.30;;;;;;4953146;29;20207;-87
2022/11/08 03:10:29;;;;;;;1.80;1.10;;;9.80;97.30;;;;;;4952197;29;20199;-88
2022/11/08 03:13:00;;;;;;;1.37;1.27;;;9.80;97.30;;;;;;4952975;29;20547;-87
2022/11/08 03:15:26;;;;;;;1.20;1.10;;;9.80;97.30;;;;;;4953927;29;20443;-86
2022/11/08 03:17:52;;;;;;;1.00;0.90;;;9.70;97.30;;;;;;4953790;28;20441;-87
2022/11/08 03:20:18;;;;;;;1.40;1.30;;;9.70;97.30;;;;;;4953734;29;20431;-87
2022/11/08 03:22:44;;;;;;;1.00;0.90;;;9.70;97.30;;;;;;4954246;29;20187;-86
2022/11/08 03:25:10;;;;;;;1.90;1.57;;;9.70;97.30;;;;;;4954514;28;20453;-85
2022/11/08 03:27:36;;;;;;;2.00;1.60;;;9.60;97.30;;;;;;4954757;29;20470;-88
2022/11/08 03:30:01;;;;;;;8.10;1.67;;;9.60;97.30;;;;;;4955671;29;20203;-87
2022/11/08 03:32:27;;;;;;;3.60;1.93;;;9.60;97.30;;;;;;4955214;29;20175;-87
2022/11/08 03:34:52;;;;;;;1.40;1.30;;;9.60;97.30;;;;;;4953168;29;20179;-87
2022/11/08 03:37:18;;;;;;;1.50;1.40;;;9.50;97.30;;;;;;4954429;28;20254;-87
2022/11/08 03:39:43;;;;;;;1.50;1.40;;;9.50;97.30;;;;;;4957381;29;20227;-86
2022/11/08 03:42:09;;;;;;;1.10;1.00;;;9.50;97.30;;;;;;4957336;29;20206;-86
2022/11/08 03:44:34;;;;;;;1.70;1.27;;;9.50;97.30;;;;;;4957097;29;20187;-86
2022/11/08 03:47:01;;;;;;;1.73;1.40;;;9.60;97.30;;;;;;4957053;29;20246;-87
2022/11/08 03:49:27;;;;;;;1.53;1.43;;;9.60;97.30;;;;;;4956706;29;20231;-87
2022/11/08 03:51:53;;;;;;;3.00;2.20;;;9.60;97.30;;;;;;4957370;29;20426;-87
2022/11/08 03:54:19;;;;;;;18.03;1.27;;;9.60;97.30;;;;;;4956847;29;20454;-87
2022/11/08 03:56:44;;;;;;;1.40;1.40;;;9.60;97.30;;;;;;4958756;29;20538;-87
2022/11/08 03:59:11;;;;;;;1.10;1.00;;;9.60;97.30;;;;;;4957175;29;20658;-86
2022/11/08 04:01:38;;;;;;;1.23;1.13;;;9.60;97.30;;;;;;4957129;29;20180;-86
2022/11/08 04:04:06;;;;;;;1.30;1.20;;;9.60;97.30;;;;;;4957470;29;20427;-87
2022/11/08 04:06:32;;;;;;;16.73;1.90;;;9.50;97.30;;;;;;4956856;29;20542;-86
2022/11/08 04:08:58;;;;;;;1.33;1.23;;;9.50;97.30;;;;;;4957214;29;20462;-87
2022/11/08 04:16:54;;;;;;;1.57;1.47;;;9.40;97.30;;;;;;4970974;28;20453;-87
2022/11/08 04:22:06;;;;;;;2.40;1.70;;;9.30;97.30;;;;;;4977197;28;20424;-88
2022/11/08 04:24:32;;;;;;;2.17;2.00;;;9.20;97.30;;;;;;4976561;28;20418;-87
2022/11/08 04:26:57;;;;;;;3.13;2.93;;;9.20;97.30;;;;;;4975219;28;20437;-87
2022/11/08 04:29:23;;;;;;;1.53;1.30;;;9.20;97.30;;;;;;4975811;28;20202;-87
2022/11/08 04:31:49;;;;;;;1.30;1.20;;;9.20;97.30;;;;;;4975656;28;20194;-86
2022/11/08 04:34:14;;;;;;;2.20;2.00;;;9.20;97.30;;;;;;4975485;28;20209;-86
2022/11/08 04:36:40;;;;;;;1.00;0.90;;;9.20;97.30;;;;;;4975005;28;20234;-87
2022/11/08 04:39:05;;;;;;;1.30;1.20;;;9.10;97.30;;;;;;4975713;28;20251;-86
2022/11/08 04:41:31;;;;;;;7.33;2.67;;;9.10;97.30;;;;;;4975954;28;20215;-87
2022/11/08 04:43:56;;;;;;;1.57;1.53;;;9.00;97.30;;;;;;4973280;28;20179;-87
2022/11/08 04:46:27;;;;;;;1.40;1.30;;;9.00;97.30;;;;;;4972245;28;20207;-89
2022/11/08 04:48:55;;;;;;;1.17;1.07;;;9.00;97.30;;;;;;4963125;28;20645;-86
2022/11/08 04:51:30;;;;;;;1.43;1.33;;;8.90;97.30;;;;;;4965625;28;20475;-87
2022/11/08 04:53:58;;;;;;;19.87;2.93;;;8.90;97.30;;;;;;4967969;28;20421;-86
2022/11/08 04:56:26;;;;;;;1.20;1.10;;;8.90;97.30;;;;;;4967891;28;20438;-87
2022/11/08 04:58:56;;;;;;;1.23;1.17;;;8.90;97.30;;;;;;4962677;28;20419;-86
2022/11/08 05:01:24;;;;;;;2.40;1.33;;;8.90;97.30;;;;;;4967165;28;20419;-87
2022/11/08 05:03:52;;;;;;;0.90;0.90;;;8.90;97.30;;;;;;4965109;28;20516;-86
2022/11/08 05:06:20;;;;;;;1.40;1.30;;;8.90;97.30;;;;;;4966040;28;20442;-87
2022/11/08 05:08:46;;;;;;;2.70;1.53;;;8.90;97.30;;;;;;4963681;28;20430;-87
2022/11/08 05:11:14;;;;;;;1.57;1.47;;;8.90;97.30;;;;;;4963772;28;20470;-87
2022/11/08 05:13:40;;;;;;;1.10;1.00;;;8.90;97.30;;;;;;4975040;28;20754;-88
2022/11/08 05:16:10;;;;;;;2.43;1.17;;;8.90;97.30;;;;;;4976127;28;20426;-87
2022/11/08 05:18:35;;;;;;;1.10;1.00;;;8.80;97.30;;;;;;4975148;28;20477;-86
2022/11/08 05:23:47;;;;;;;1.63;1.53;;;8.80;97.30;;;;;;4965615;28;20250;-88
2022/11/08 05:26:14;;;;;;;1.30;1.20;;;8.80;97.30;;;;;;4966940;28;20453;-87
2022/11/08 05:28:39;;;;;;;1.20;1.10;;;8.70;97.30;;;;;;4962523;28;20418;-87
2022/11/08 05:31:06;;;;;;;1.20;1.10;;;8.70;97.30;;;;;;4966498;28;20465;-87
2022/11/08 05:33:32;;;;;;;1.93;1.83;;;8.70;97.30;;;;;;4963757;28;20182;-87
2022/11/08 05:36:07;;;;;;;2.03;1.83;;;8.60;97.30;;;;;;4964852;28;20427;-87
2022/11/08 05:38:33;;;;;;;2.13;2.00;;;8.60;97.30;;;;;;4966169;28;20214;-87
2022/11/08 05:41:16;;;;;;;1.40;1.30;;;8.60;97.30;;;;;;4962456;28;20425;-86
2022/11/08 05:43:45;;;;;;;1.10;1.00;;;8.50;97.30;;;;;;4964374;28;20429;-86
2022/11/08 05:46:20;;;;;;;1.83;1.73;;;8.60;97.30;;;;;;4974369;28;20446;-89
2022/11/08 05:48:47;;;;;;;1.00;0.90;;;8.60;97.30;;;;;;4974145;28;20414;-87
2022/11/08 05:51:15;;;;;;;1.63;1.57;;;8.60;97.30;;;;;;4974137;28;20521;-88
2022/11/08 05:53:41;;;;;;;1.10;1.00;;;8.70;97.30;;;;;;4974491;28;20414;-87
2022/11/08 05:56:06;;;;;;;1.13;1.07;;;8.70;97.30;;;;;;4975226;28;20484;-88
2022/11/08 05:58:33;;;;;;;1.40;1.30;;;8.70;97.30;;;;;;4973124;28;20505;-86
2022/11/08 06:01:19;;;;;;;1.00;0.90;;;8.70;97.30;;;;;;4963298;28;20178;-87
2022/11/08 06:03:46;;;;;;;3.63;3.33;;;8.80;97.30;;;;;;4964311;28;20446;-87
2022/11/08 06:06:15;;;;;;;1.83;1.47;;;8.80;97.30;;;;;;4965747;28;20504;-87
2022/11/08 06:08:41;;;;;;;1.47;1.37;;;8.90;97.30;;;;;;4967156;28;20402;-91
2022/11/08 06:11:11;;;;;;;2.40;2.10;;;8.90;97.30;;;;;;4983881;28;20481;-90
2022/11/08 06:13:38;;;;;;;1.70;1.57;;;8.90;97.30;;;;;;4988208;28;20453;-89
2022/11/08 06:16:06;;;;;;;7.03;3.23;;;8.90;97.30;;;;;;4987689;28;20460;-89
2022/11/08 06:18:33;;;;;;;1.23;1.23;;;8.90;97.30;;;;;;4980783;28;21054;-85
2022/11/08 06:21:00;;;;;;;1.20;1.10;;;8.90;97.30;;;;;;4960067;29;20422;-85
2022/11/08 06:23:26;;;;;;;1.30;1.20;;;8.90;97.30;;;;;;4956564;29;20461;-86
2022/11/08 06:25:51;;;;;;;2.00;1.33;;;8.90;97.30;;;;;;4971713;28;20926;-86
2022/11/08 06:28:17;;;;;;;1.30;1.20;;;9.00;97.30;;;;;;4970983;28;20414;-88
2022/11/08 06:30:46;;;;;;;1.00;0.90;;;9.00;97.30;;;;;;4970100;28;20697;-88
2022/11/08 06:33:11;;;;;;;1.80;1.70;;;9.00;97.30;;;;;;4955622;29;20427;-85
2022/11/08 06:35:37;;;;;;;3.37;1.40;;;9.00;97.30;;;;;;4970217;28;20434;-85
2022/11/08 06:38:05;;;;;;;1.17;1.07;;;9.00;97.30;;;;;;4970603;28;20816;-88
2022/11/08 06:40:31;;;;;;;1.47;1.37;;;9.00;97.30;;;;;;4972866;28;20245;-86
2022/11/08 06:42:57;;;;;;;1.30;1.20;;;9.00;97.30;;;;;;4972204;28;20940;-87
2022/11/08 06:45:24;;;;;;;1.63;1.53;;;9.00;97.30;;;;;;4971431;28;20439;-87
2022/11/08 06:47:59;;;;;;;2.50;1.30;;;9.00;97.30;;;;;;4972365;28;20449;-85
2022/11/08 06:50:25;;;;;;;1.20;1.10;;;9.00;97.30;;;;;;4968096;28;20876;-86
2022/11/08 06:52:55;;;;;;;3.03;2.00;;;9.00;97.30;;;;;;4963981;28;20454;-85
2022/11/08 06:55:21;;;;;;;1.10;1.00;;;9.10;97.30;;;;;;4961489;28;20417;-86
2022/11/08 06:57:47;;;;;;;5.00;2.37;;;9.10;97.30;;;;;;4967554;28;20441;-86
2022/11/08 07:00:14;;;;;;;4.33;1.40;;;9.10;97.30;;;;;;4967472;28;20178;-87
2022/11/08 07:02:39;;;;;;;1.37;1.13;;;9.10;97.30;;;;;;4967262;28;20274;-87
2022/11/08 07:05:05;;;;;;;1.53;1.43;;;9.10;97.30;;;;;;4962022;28;20442;-87
2022/11/08 07:07:31;;;;;;;1.10;1.00;;;9.20;97.30;;;;;;4953579;29;20641;-88
2022/11/08 07:09:56;;;;;;;1.30;1.20;;;9.20;97.30;;;;;;4953934;28;20217;-86
2022/11/08 07:12:22;;;;;;;1.70;1.23;;;9.30;97.30;;;;;;4976713;28;20238;-89
2022/11/08 07:14:47;;;;;;;1.70;1.60;;;9.40;97.30;;;;;;4993197;28;20178;-90
2022/11/08 07:17:14;;;;;;;1.30;1.20;;;9.50;97.30;;;;;;4993443;28;20213;-90
2022/11/08 07:19:40;;;;;;;1.90;1.80;;;9.60;97.30;;;;;;4996966;28;20311;-89
2022/11/08 07:22:05;;;;;;;1.50;1.40;;;9.70;97.30;;;;;;4996967;28;20422;-88
2022/11/08 07:24:31;;;;;;;1.00;0.90;;;9.70;97.30;;;;;;4983887;28;20673;-88
2022/11/08 07:26:56;;;;;;;1.27;1.17;;;9.80;97.30;;;;;;4977156;28;20214;-87
2022/11/08 07:29:22;;;;;;;2.97;2.77;;;9.90;97.30;;;;;;4957766;29;20202;-88
2022/11/08 07:31:47;;;;;;;1.83;1.80;;;10.00;97.30;;;;;;4957837;29;20179;-87
2022/11/08 07:34:13;;;;;;;2.70;1.70;;;10.10;97.30;;;;;;4962484;28;20281;-89
2022/11/08 07:36:39;;;;;;;1.50;1.40;;;10.10;97.30;;;;;;4977689;28;20238;-88
2022/11/08 07:39:04;;;;;;;4.63;2.43;;;10.20;97.30;;;;;;4979251;28;20178;-87
2022/11/08 07:41:30;;;;;;;1.37;1.27;;;10.30;97.30;;;;;;4977015;28;20179;-87
2022/11/08 07:43:55;;;;;;;1.30;1.20;;;10.40;97.30;;;;;;4976240;28;20175;-87
2022/11/08 07:46:21;;;;;;;1.50;1.40;;;10.50;97.30;;;;;;4977561;28;20194;-87
2022/11/08 07:48:47;;;;;;;2.63;2.23;;;10.60;97.30;;;;;;4977204;28;20182;-87
2022/11/08 07:51:12;;;;;;;2.23;2.03;;;10.70;97.30;;;;;;4976754;28;20207;-86
2022/11/08 07:53:38;;;;;;;1.20;1.10;;;10.80;97.30;;;;;;4966961;28;20425;-86
2022/11/08 07:56:03;;;;;;;1.00;0.90;;;10.90;97.30;;;;;;4964839;28;20202;-86
2022/11/08 07:58:29;;;;;;;1.47;1.47;;;11.00;97.30;;;;;;4964898;28;20178;-85
2022/11/08 08:01:01;;;;;;;1.63;1.53;;;11.10;97.30;;;;;;4964993;28;20198;-86
2022/11/08 08:03:27;;;;;;;1.33;1.33;;;11.20;97.30;;;;;;4967571;28;20179;-86
2022/11/08 08:05:52;;;;;;;1.50;1.40;;;11.30;97.30;;;;;;4966721;28;20418;-86
2022/11/08 08:08:18;;;;;;;1.40;1.20;;;11.30;97.30;;;;;;4962525;28;20471;-88
2022/11/08 08:10:44;;;;;;;1.27;1.17;;;11.40;97.30;;;;;;4964681;28;20206;-87
2022/11/08 08:13:10;;;;;;;1.97;1.53;;;11.50;97.30;;;;;;4960728;28;20482;-88
2022/11/08 08:15:35;;;;;;;1.87;1.43;;;11.60;97.30;;;;;;4964137;28;20193;-86
2022/11/08 08:18:03;;;;;;;1.60;1.50;;;11.70;97.30;;;;;;4966017;28;20206;-85
2022/11/08 08:20:29;;;;;;;1.40;1.30;;;11.80;97.30;;;;;;4964450;28;20282;-87
2022/11/08 08:22:58;;;;;;;1.27;1.17;;;11.80;97.30;;;;;;4968673;28;20446;-87
2022/11/08 08:25:24;;;;;;;2.10;1.23;;;11.90;97.30;;;;;;4963431;28;20406;-87
2022/11/08 08:27:52;;;;;;;1.30;1.20;;;12.00;97.30;;;;;;4966042;28;20445;-87
2022/11/08 08:30:18;;;;;;;1.27;1.23;;;12.10;97.30;;;;;;4966337;28;20454;-87
2022/11/08 08:32:45;;;;;;;1.20;1.10;;;12.20;97.30;;;;;;4967344;28;20406;-87
2022/11/08 08:35:11;;;;;;;3.00;2.47;;;12.40;97.30;;;;;;4967081;28;20949;-86
2022/11/08 08:37:37;;;;;;;2.60;1.97;;;12.50;97.30;;;;;;4962579;28;20466;-87
2022/11/08 08:40:03;;;;;;;1.77;1.00;;;12.60;97.30;;;;;;4964185;28;20427;-87
2022/11/08 08:42:29;;;;;;;1.63;1.53;;;12.70;97.30;;;;;;4974944;28;20200;-86
2022/11/08 08:44:54;;;;;;;1.17;1.00;;;12.80;97.30;;;;;;4975822;28;20995;-87
2022/11/08 08:47:20;;;;;;;1.47;1.30;;;12.80;97.30;;;;;;4975554;28;20202;-87
2022/11/08 08:49:45;;;;;;;1.10;1.00;;;12.90;97.30;;;;;;4969730;28;20247;-87
2022/11/08 08:52:11;;;;;;;1.10;1.00;;;12.90;97.30;;;;;;4957180;28;20642;-88
2022/11/08 08:54:36;;;;;;;8.53;2.03;;;13.00;97.30;;;;;;4955584;28;20175;-88
2022/11/08 08:57:02;;;;;;;3.33;1.27;;;13.10;97.30;;;;;;4968692;28;20190;-88
2022/11/08 08:59:28;;;;;;;1.20;1.00;;;13.20;97.30;;;;;;4960577;28;20207;-87
2022/11/08 09:01:54;;;;;;;1.33;1.23;;;13.30;97.30;;;;;;4965321;28;20657;-87
2022/11/08 09:04:20;;;;;;;1.60;1.50;;;13.30;97.30;;;;;;4964408;28;20415;-87
2022/11/08 09:06:45;;;;;;;1.00;0.93;;;13.30;97.30;;;;;;4966587;28;20349;-86
2022/11/08 09:09:11;;;;;;;1.87;1.43;;;13.40;97.30;;;;;;4964546;28;20190;-87
2022/11/08 09:11:36;;;;;;;1.37;1.27;;;13.40;97.30;;;;;;4966271;28;20682;-87
2022/11/08 09:14:02;;;;;;;1.53;1.43;;;13.40;97.30;;;;;;4963437;28;20194;-87
2022/11/08 09:16:27;;;;;;;1.50;1.00;;;13.50;97.30;;;;;;4963126;28;20281;-87
2022/11/08 09:18:53;;;;;;;1.57;1.43;;;13.60;97.30;;;;;;4965557;28;20182;-87
2022/11/08 09:21:18;;;;;;;2.10;1.03;;;13.70;97.30;;;;;;4962693;28;20191;-88
2022/11/08 09:23:44;;;;;;;1.53;1.40;;;13.80;97.30;;;;;;4957831;28;20651;-87
2022/11/08 09:26:10;;;;;;;5.53;1.60;;;13.90;97.30;;;;;;4961871;28;20747;-88
2022/11/08 09:28:36;;;;;;;1.60;1.20;;;14.00;97.30;;;;;;4970701;28;20564;-87
2022/11/08 09:31:08;;;;;;;1.53;1.23;;;14.10;97.30;;;;;;4960309;28;20202;-87
2022/11/08 09:33:34;;;;;;;1.77;1.67;;;14.00;97.30;;;;;;4968363;28;20418;-87
2022/11/08 09:36:01;;;;;;;1.40;1.27;;;14.00;97.30;;;;;;4963280;28;20926;-87
2022/11/08 09:38:27;;;;;;;1.10;1.00;;;14.00;97.30;;;;;;4959750;28;20447;-87
2022/11/08 09:41:04;;;;;;;1.63;0.97;;;14.10;97.30;;;;;;4962516;28;20425;-87
2022/11/08 09:43:49;;;;;;;1.30;1.20;;;14.20;97.30;;;;;;4963694;28;20402;-87
2022/11/08 09:46:27;;;;;;;4.93;1.83;;;14.30;97.30;;;;;;4961440;28;20537;-87
2022/11/08 09:48:54;;;;;;;2.40;1.17;;;14.40;97.30;;;;;;4965321;28;20642;-86
2022/11/08 09:51:23;;;;;;;1.40;1.30;;;14.40;97.30;;;;;;4963296;28;20457;-87
2022/11/08 09:53:53;;;;;;;1.10;1.00;;;14.40;97.30;;;;;;4965415;28;20410;-87
2022/11/08 09:56:31;;;;;;;1.33;1.23;;;14.40;97.30;;;;;;4960659;28;20453;-87
2022/11/08 09:59:13;;;;;;;1.07;0.97;;;14.40;97.30;;;;;;4965993;28;20426;-88
2022/11/08 10:01:38;;;;;;;2.77;2.17;;;14.40;97.30;;;;;;4967648;28;20464;-87
2022/11/08 10:04:13;;;;;;;1.37;1.27;;;14.40;97.30;;;;;;4967542;28;20476;-87
2022/11/08 10:07:20;;;;;;;1.37;1.27;;;14.40;97.30;;;;;;4963464;28;20195;-87
2022/11/08 10:10:13;;;;;;;1.00;0.90;;;14.40;97.30;;;;;;4996035;28;20528;-92
2022/11/08 10:13:21;;;;;;;1.53;1.43;;;14.30;97.30;;;;;;4999296;28;20430;-88
2022/11/08 10:16:07;;;;;;;1.27;1.17;;;14.20;97.30;;;;;;4933536;29;20467;-88
2022/11/08 10:18:54;;;;;;;1.10;1.00;;;14.20;97.30;;;;;;4919760;29;20423;-88
2022/11/08 10:21:40;;;;;;;1.37;1.20;;;14.20;97.30;;;;;;4961124;28;20437;-88
2022/11/08 10:24:20;;;;;;;1.43;1.40;;;14.20;97.30;;;;;;4974611;28;20425;-88
2022/11/08 10:26:49;;;;;;;3.37;1.70;;;14.40;97.30;;;;;;4970522;28;20446;-86
2022/11/08 10:29:41;;;;;;;1.00;0.90;;;14.50;97.30;;;;;;4973745;28;20472;-88
2022/11/08 10:32:21;;;;;;;1.90;1.80;;;14.60;97.30;;;;;;4963954;28;20425;-85
2022/11/08 10:34:56;;;;;;;7.60;1.30;;;14.80;97.30;;;;;;4966511;28;20418;-86
2022/11/08 10:37:24;;;;;;;1.03;0.93;;;15.00;97.30;;;;;;4955839;28;20816;-85
2022/11/08 10:39:57;;;;;;;2.33;1.30;;;15.10;97.30;;;;;;4956104;28;20519;-86
2022/11/08 10:42:33;;;;;;;1.40;1.30;;;15.30;97.30;;;;;;4959057;28;20814;-86
2022/11/08 10:44:59;;;;;;;0.90;0.90;;;15.60;96.90;;;;;;4956084;28;20463;-86
2022/11/08 10:47:28;;;;;;;1.17;1.07;;;15.80;96.40;;;;;;4953805;28;20902;-85
2022/11/08 10:49:54;;;;;;;1.10;1.00;;;16.10;95.40;;;;;;4955583;28;20199;-85
2022/11/08 10:52:33;;;;;;;3.37;1.60;;;16.30;95.50;;;;;;4956929;28;20418;-86
2022/11/08 10:55:00;;;;;;;1.00;0.90;;;16.60;94.60;;;;;;4951953;29;20465;-86
2022/11/08 10:57:31;;;;;;;1.13;1.10;;;16.80;92.70;;;;;;4967582;28;20465;-85
2022/11/08 11:00:17;;;;;;;1.30;1.20;;;16.90;92.30;;;;;;4961454;28;20426;-86
2022/11/08 11:02:50;;;;;;;1.20;1.10;;;17.00;91.10;;;;;;4963768;28;20449;-90
2022/11/08 11:05:16;;;;;;;2.27;1.57;;;16.90;89.00;;;;;;4974927;28;20411;-90
2022/11/08 11:08:17;;;;;;;1.13;1.03;;;16.80;89.40;;;;;;4966504;28;20446;-88
2022/11/08 11:10:47;;;;;;;1.50;1.40;;;17.00;89.60;;;;;;4960991;28;20450;-88
2022/11/08 11:13:25;;;;;;;16.13;1.20;;;17.10;89.80;;;;;;4968257;28;20416;-90
2022/11/08 11:16:00;;;;;;;1.27;1.00;;;17.30;90.50;;;;;;4967693;28;20521;-89
2022/11/08 11:18:34;;;;;;;1.77;1.50;;;17.40;89.10;;;;;;4978349;28;20449;-90
2022/11/08 11:21:04;;;;;;;2.10;1.20;;;17.40;87.90;;;;;;4974582;28;20426;-89
2022/11/08 11:23:38;;;;;;;5.80;1.10;;;17.40;88.30;;;;;;4965857;28;20422;-90
2022/11/08 11:26:06;;;;;;;1.60;1.30;;;17.30;87.80;;;;;;4964844;28;20543;-88
2022/11/08 11:28:34;;;;;;;1.57;1.47;;;17.40;88.10;;;;;;4972523;28;20548;-88
2022/11/08 11:31:03;;;;;;;1.93;1.83;;;17.40;88.50;;;;;;4970819;28;20872;-88
2022/11/08 11:33:29;;;;;;;1.10;1.00;;;17.60;87.60;;;;;;4972923;28;20416;-88
2022/11/08 11:36:03;;;;;;;1.53;1.43;;;17.50;87.70;;;;;;4972312;28;20855;-89
2022/11/08 11:38:59;;;;;;;1.77;1.20;;;17.40;87.20;;;;;;4972579;28;20456;-89
2022/11/08 11:41:28;;;;;;;1.73;1.20;;;17.30;87.80;;;;;;4973836;28;20941;-88
2022/11/08 11:44:24;;;;;;;1.10;1.00;;;17.30;88.00;;;;;;4961133;28;20422;-88
2022/11/08 11:47:12;;;;;;;2.93;1.20;;;17.40;87.90;;;;;;4977436;23;20566;-85
2022/11/08 11:49:39;;;;;;;1.00;0.90;;;17.70;87.90;;;;;;4981903;28;20465;-85
2022/11/08 11:52:14;;;;;;;1.10;1.00;;;17.80;87.00;;;;;;4990465;28;20934;-86
2022/11/08 11:54:41;;;;;;;1.17;1.17;;;18.00;87.20;;;;;;4990640;28;20467;-85
2022/11/08 11:57:13;;;;;;;1.07;0.97;;;18.00;85.90;;;;;;4989728;28;20459;-86
2022/11/08 12:00:06;;;;;;;1.30;1.20;;;18.00;85.40;;;;;;4982800;28;20415;-85
2022/11/08 12:02:58;;;;;;;1.57;1.47;;;17.90;85.80;;;;;;4987555;28;20420;-85
2022/11/08 12:05:36;;;;;;;1.00;0.90;;;18.00;86.90;;;;;;4983488;28;20428;-85
2022/11/08 12:08:01;;;;;;;0.97;0.93;;;18.10;86.30;;;;;;4980754;28;20620;-85
2022/11/08 12:10:48;;;;;;;1.47;1.40;;;18.00;85.60;;;;;;4974333;28;21187;-85
2022/11/08 12:13:38;;;;;;;6.57;1.40;;;18.10;86.80;;;;;;4973579;28;20641;-84
2022/11/08 12:16:24;;;;;;;1.70;1.63;;;18.10;86.20;;;;;;4987220;28;20423;-86
2022/11/08 12:19:12;;;;;;;1.20;1.10;;;18.00;85.50;;;;;;5012673;28;20799;-87
2022/11/08 12:22:04;;;;;;;1.63;1.10;;;17.90;85.80;;;;;;5001623;28;20475;-85
2022/11/08 12:24:53;;;;;;;1.00;0.90;;;17.80;86.30;;;;;;4992612;28;20453;-85
2022/11/08 12:27:34;;;;;;;2.83;1.07;;;18.00;86.30;;;;;;4992520;28;20496;-85
2022/11/08 12:30:16;;;;;;;1.50;1.30;;;18.10;86.00;;;;;;4992581;28;20495;-85
2022/11/08 12:33:00;;;;;;;9.10;2.23;;;18.20;85.40;;;;;;4992686;28;20452;-85
2022/11/08 12:36:00;;;;;;;1.53;1.30;;;18.20;85.50;;;;;;4993621;28;20413;-84
2022/11/08 12:38:37;;;;;;;1.50;1.40;;;18.20;85.60;;;;;;4992523;28;20437;-85
2022/11/08 12:41:33;;;;;;;1.53;1.43;;;18.40;86.30;;;;;;4992211;28;20432;-85
2022/11/08 12:44:20;;;;;;;1.57;1.47;;;18.60;85.30;;;;;;4993741;28;20417;-85
2022/11/08 12:47:16;;;;;;;2.20;1.57;;;18.70;85.50;;;;;;4991313;28;20444;-86
2022/11/08 12:50:14;;;;;;;7.33;1.60;;;18.70;85.00;;;;;;4992053;28;20834;-86
2022/11/08 12:53:17;;;;;;;0.90;0.90;;;18.70;84.90;;;;;;4992295;28;20560;-86
2022/11/08 12:55:46;;;;;;;1.53;1.43;;;18.60;85.60;;;;;;4992025;28;20511;-86
2022/11/08 12:58:50;;;;;;;0.93;0.83;;;18.50;85.20;;;;;;4989500;28;20990;-85
2022/11/08 13:01:17;;;;;;;1.00;0.90;;;18.50;85.80;;;;;;4982622;28;20429;-85
2022/11/08 13:03:46;;;;;;;1.00;0.90;;;18.50;86.20;;;;;;4982226;28;20983;-85
2022/11/08 13:06:16;;;;;;;2.23;1.40;;;18.40;86.40;;;;;;4979947;28;20413;-85
2022/11/08 13:08:45;;;;;;;1.00;0.90;;;18.40;86.60;;;;;;4979372;28;20572;-85
2022/11/08 13:11:19;;;;;;;1.70;1.60;;;18.60;86.50;;;;;;4981041;28;20462;-85
2022/11/08 13:13:52;;;;;;;1.03;1.00;;;18.90;85.80;;;;;;4972276;28;20810;-85
2022/11/08 13:16:23;;;;;;;2.27;1.03;;;19.30;85.50;;;;;;4988998;28;20843;-85
2022/11/08 13:18:56;;;;;;;1.93;1.40;;;19.60;84.70;;;;;;5011548;28;20416;-84
2022/11/08 13:21:28;;;;;;;1.50;1.23;;;19.80;84.00;;;;;;4999627;28;20429;-85
2022/11/08 13:24:17;;;;;;;1.00;0.90;;;19.80;83.40;;;;;;4992831;28;20409;-85
2022/11/08 13:26:43;;;;;;;1.97;1.23;;;19.90;83.40;;;;;;4983826;28;20437;-85